Time;durP1;ratioP1;P1;durP2;ratioP2;P2;SDS_P1;SDS_P2;PMS_P1;PMS_P2;Temp;Humidity;BMP_temperature;BMP_pressure;BME280_temperature;BME280_humidity;BME280_pressure;Samples;Min_cycle;Max_cycle;Signal;HPM_P1;HPM_P2
2023/08/27 00:01:25;;;;;;;4.37;3.97;;;23.80;50.40;;;;;;5133719;27;20755;-56
2023/08/27 00:03:51;;;;;;;4.23;3.67;;;23.80;50.20;;;;;;5133458;27;20640;-56
2023/08/27 00:06:17;;;;;;;5.60;4.60;;;23.80;50.20;;;;;;5133236;27;20182;-52
2023/08/27 00:08:43;;;;;;;4.30;3.90;;;23.80;50.30;;;;;;5133359;27;20239;-54
2023/08/27 00:11:08;;;;;;;6.13;3.47;;;23.80;50.40;;;;;;5133733;27;20209;-54
2023/08/27 00:13:34;;;;;;;4.70;4.20;;;23.90;50.60;;;;;;5133385;27;20517;-51
2023/08/27 00:16:00;;;;;;;6.30;4.63;;;23.90;50.60;;;;;;5133351;27;20194;-54
2023/08/27 00:18:26;;;;;;;7.30;4.37;;;23.90;50.60;;;;;;5133300;27;20523;-53
2023/08/27 00:20:52;;;;;;;5.30;4.37;;;23.90;50.60;;;;;;5133233;27;20249;-52
2023/08/27 00:23:17;;;;;;;4.47;3.60;;;23.90;50.40;;;;;;5133181;27;20181;-56
2023/08/27 00:25:44;;;;;;;7.07;3.23;;;23.90;50.20;;;;;;5132963;27;21061;-56
2023/08/27 00:28:15;;;;;;;8.90;3.80;;;23.90;50.10;;;;;;5133486;27;20185;-53
2023/08/27 00:30:42;;;;;;;4.87;4.37;;;23.90;50.20;;;;;;5133129;27;20897;-54
2023/08/27 00:33:08;;;;;;;5.57;3.90;;;23.90;50.30;;;;;;5132403;27;20901;-53
2023/08/27 00:35:34;;;;;;;7.40;4.53;;;23.90;50.50;;;;;;5132621;27;20428;-52
2023/08/27 00:37:59;;;;;;;4.53;4.13;;;23.90;50.50;;;;;;5132845;27;20980;-54
2023/08/27 00:40:28;;;;;;;7.00;5.10;;;23.90;50.20;;;;;;5133113;27;20400;-56
2023/08/27 00:42:58;;;;;;;6.27;4.67;;;23.90;50.10;;;;;;5133150;27;20179;-52
2023/08/27 00:45:24;;;;;;;5.00;4.50;;;23.90;50.00;;;;;;5132729;27;20925;-54
2023/08/27 00:47:50;;;;;;;6.17;5.17;;;23.80;49.90;;;;;;5133021;28;20466;-51
2023/08/27 00:50:16;;;;;;;7.40;5.77;;;23.70;50.20;;;;;;5133086;28;20414;-54
2023/08/27 00:52:43;;;;;;;5.40;4.50;;;23.70;50.60;;;;;;5132822;27;20800;-55
2023/08/27 00:55:09;;;;;;;6.90;4.77;;;23.80;50.80;;;;;;5132869;28;20416;-53
2023/08/27 00:57:39;;;;;;;5.87;5.13;;;23.80;50.80;;;;;;5132991;27;20468;-54
2023/08/27 01:00:09;;;;;;;5.70;5.20;;;23.80;50.70;;;;;;5132895;27;20400;-56
2023/08/27 01:02:35;;;;;;;11.13;5.10;;;23.80;50.60;;;;;;5132846;27;20418;-52
2023/08/27 01:05:01;;;;;;;9.40;5.67;;;23.90;50.80;;;;;;5132440;27;20456;-52
2023/08/27 01:07:39;;;;;;;5.87;5.37;;;23.80;50.80;;;;;;5132979;27;20424;-57
2023/08/27 01:10:34;;;;;;;11.23;5.63;;;23.80;50.60;;;;;;5132814;28;20441;-54
2023/08/27 01:13:13;;;;;;;6.63;5.13;;;23.90;50.80;;;;;;5132730;28;20405;-55
2023/08/27 01:15:39;;;;;;;5.63;5.13;;;23.80;51.40;;;;;;5132436;27;20396;-52
2023/08/27 01:18:08;;;;;;;7.40;5.10;;;23.80;50.70;;;;;;5132712;27;20544;-51
2023/08/27 01:20:34;;;;;;;6.23;5.20;;;23.80;50.90;;;;;;5132558;27;20909;-56
2023/08/27 01:23:00;;;;;;;13.00;5.50;;;23.90;51.60;;;;;;5132601;28;20457;-52
2023/08/27 01:25:36;;;;;;;7.33;6.00;;;23.90;51.00;;;;;;5132495;27;20635;-51
2023/08/27 01:28:04;;;;;;;7.03;5.63;;;23.90;51.10;;;;;;5132384;27;20170;-55
2023/08/27 01:30:38;;;;;;;6.53;5.80;;;23.90;51.20;;;;;;5132794;27;20465;-52
2023/08/27 01:33:12;;;;;;;8.30;5.47;;;23.80;51.00;;;;;;5132579;27;21015;-57
2023/08/27 01:35:39;;;;;;;12.97;5.40;;;23.90;51.00;;;;;;5132085;27;20451;-57
2023/08/27 01:38:06;;;;;;;6.87;5.60;;;23.80;50.90;;;;;;5132456;27;20462;-51
2023/08/27 01:40:31;;;;;;;7.40;3.77;;;23.80;51.00;;;;;;5132434;27;20521;-57
2023/08/27 01:42:57;;;;;;;3.90;3.30;;;23.80;51.00;;;;;;5133154;27;20496;-51
2023/08/27 01:45:23;;;;;;;4.90;3.60;;;23.80;50.90;;;;;;5136028;27;20273;-57
2023/08/27 01:47:49;;;;;;;3.37;2.70;;;23.80;50.70;;;;;;5136086;27;20194;-53
2023/08/27 01:50:15;;;;;;;2.87;2.20;;;23.80;50.70;;;;;;5136146;27;20204;-52
2023/08/27 01:52:41;;;;;;;4.00;2.30;;;23.80;50.70;;;;;;5136347;27;20405;-55
2023/08/27 01:55:07;;;;;;;3.90;2.83;;;23.80;50.80;;;;;;5135706;27;20403;-54
2023/08/27 01:57:33;;;;;;;3.00;1.90;;;23.80;50.90;;;;;;5136160;27;20470;-52
2023/08/27 01:59:59;;;;;;;3.10;2.40;;;23.70;50.90;;;;;;5136212;27;20408;-55
2023/08/27 02:02:25;;;;;;;4.67;2.10;;;23.80;50.90;;;;;;5135898;27;20430;-57
2023/08/27 02:04:51;;;;;;;2.73;1.37;;;23.80;50.90;;;;;;5135730;27;20202;-53
2023/08/27 02:07:20;;;;;;;2.10;1.60;;;23.80;50.70;;;;;;5135972;27;20195;-53
2023/08/27 02:09:45;;;;;;;2.43;1.63;;;23.90;50.80;;;;;;5135731;27;20190;-53
2023/08/27 02:12:11;;;;;;;2.10;1.47;;;23.80;50.60;;;;;;5135851;27;20418;-54
2023/08/27 02:14:38;;;;;;;1.70;1.20;;;23.80;50.60;;;;;;5135454;27;20614;-50
2023/08/27 02:17:04;;;;;;;1.50;0.90;;;23.80;50.70;;;;;;5135581;27;20214;-53
2023/08/27 02:19:30;;;;;;;2.27;1.40;;;23.80;51.60;;;;;;5135559;27;20932;-56
2023/08/27 02:21:55;;;;;;;1.70;1.13;;;23.80;50.80;;;;;;5135566;27;20412;-52
2023/08/27 02:24:21;;;;;;;1.60;1.10;;;23.80;50.80;;;;;;5135539;27;20166;-53
2023/08/27 02:26:47;;;;;;;2.20;1.43;;;23.80;50.70;;;;;;5135356;27;20695;-53
2023/08/27 02:29:13;;;;;;;2.13;1.90;;;23.80;50.60;;;;;;5135721;27;20181;-52
2023/08/27 02:31:38;;;;;;;3.70;1.97;;;23.80;50.30;;;;;;5135606;27;20566;-52
2023/08/27 02:34:04;;;;;;;3.30;1.20;;;23.80;50.20;;;;;;5135053;27;20273;-55
2023/08/27 02:36:30;;;;;;;2.03;1.00;;;23.90;50.20;;;;;;5134954;27;20198;-53
2023/08/27 02:38:55;;;;;;;2.27;1.10;;;23.80;50.20;;;;;;5135099;27;20175;-54
2023/08/27 02:41:21;;;;;;;1.90;1.10;;;23.80;50.20;;;;;;5135186;27;20198;-54
2023/08/27 02:43:47;;;;;;;2.00;1.50;;;23.80;50.20;;;;;;5135167;27;20194;-51
2023/08/27 02:46:13;;;;;;;1.63;0.90;;;23.80;50.30;;;;;;5134871;27;20186;-53
2023/08/27 02:48:38;;;;;;;2.57;1.73;;;23.70;50.50;;;;;;5135058;27;20175;-57
2023/08/27 02:51:04;;;;;;;2.53;1.40;;;23.70;50.50;;;;;;5134923;27;20420;-52
2023/08/27 02:53:30;;;;;;;1.70;1.10;;;23.70;50.70;;;;;;5134932;27;20195;-52
2023/08/27 02:55:56;;;;;;;1.53;1.00;;;23.70;50.70;;;;;;5134163;27;20231;-55
2023/08/27 02:58:21;;;;;;;1.77;1.00;;;23.70;50.80;;;;;;5134881;27;20259;-51
2023/08/27 03:00:47;;;;;;;2.60;1.30;;;23.70;50.70;;;;;;5134992;27;20174;-52
2023/08/27 03:03:13;;;;;;;2.23;0.77;;;23.70;50.60;;;;;;5134983;27;20174;-53
2023/08/27 03:05:40;;;;;;;1.87;1.20;;;23.70;50.70;;;;;;5134431;27;20189;-54
2023/08/27 03:08:06;;;;;;;2.53;1.63;;;23.70;50.80;;;;;;5134835;27;20199;-56
2023/08/27 03:10:32;;;;;;;1.70;1.27;;;23.70;50.80;;;;;;5134583;27;20462;-51
2023/08/27 03:12:58;;;;;;;1.50;1.10;;;23.70;51.00;;;;;;5134886;27;20408;-57
2023/08/27 03:15:23;;;;;;;2.63;1.30;;;23.70;50.90;;;;;;5134338;27;20173;-55
2023/08/27 03:17:49;;;;;;;1.63;1.10;;;23.70;50.80;;;;;;5134254;27;20206;-52
2023/08/27 03:20:15;;;;;;;4.93;1.27;;;23.70;50.80;;;;;;5134640;27;20175;-54
2023/08/27 03:22:41;;;;;;;1.30;0.80;;;23.70;50.90;;;;;;5134390;27;20619;-53
2023/08/27 03:25:07;;;;;;;1.30;0.83;;;23.60;50.70;;;;;;5134392;27;20177;-53
2023/08/27 03:27:35;;;;;;;1.80;1.07;;;23.60;50.60;;;;;;5134218;27;20198;-52
2023/08/27 03:30:03;;;;;;;2.40;1.27;;;23.70;50.60;;;;;;5134377;27;20415;-56
2023/08/27 03:32:29;;;;;;;2.90;1.40;;;23.60;50.40;;;;;;5134212;27;20407;-52
2023/08/27 03:34:55;;;;;;;1.80;1.13;;;23.50;50.30;;;;;;5133705;27;20427;-55
2023/08/27 03:37:21;;;;;;;1.43;0.97;;;23.50;50.40;;;;;;5133938;27;20984;-53
2023/08/27 03:39:47;;;;;;;2.20;1.30;;;23.50;50.50;;;;;;5134158;27;20409;-54
2023/08/27 03:42:13;;;;;;;1.40;0.70;;;23.40;50.50;;;;;;5134008;27;20633;-55
2023/08/27 03:44:39;;;;;;;1.67;1.00;;;23.40;50.60;;;;;;5133825;27;20215;-52
2023/08/27 03:47:05;;;;;;;1.60;0.90;;;23.40;50.80;;;;;;5133761;27;20424;-51
2023/08/27 03:49:31;;;;;;;1.83;0.93;;;23.30;50.80;;;;;;5133829;27;20262;-57
2023/08/27 03:51:57;;;;;;;1.50;1.30;;;23.30;50.80;;;;;;5134129;27;20889;-51
2023/08/27 03:54:22;;;;;;;2.30;1.27;;;23.30;51.00;;;;;;5133741;27;20496;-54
2023/08/27 03:56:48;;;;;;;2.10;1.07;;;23.30;51.00;;;;;;5133731;27;20672;-55
2023/08/27 03:59:14;;;;;;;3.67;1.30;;;23.40;51.10;;;;;;5133675;27;20495;-53
2023/08/27 04:01:40;;;;;;;1.80;0.90;;;23.40;51.00;;;;;;5133607;27;20547;-54
2023/08/27 04:04:06;;;;;;;1.83;1.10;;;23.40;50.90;;;;;;5133313;27;20409;-55
2023/08/27 04:06:31;;;;;;;1.30;0.80;;;23.40;50.90;;;;;;5132593;27;20191;-53
2023/08/27 04:08:57;;;;;;;1.83;1.00;;;23.40;50.90;;;;;;5133559;27;20168;-53
2023/08/27 04:11:23;;;;;;;1.80;1.10;;;23.40;50.90;;;;;;5133743;27;20174;-52
2023/08/27 04:13:49;;;;;;;2.30;1.27;;;23.40;50.90;;;;;;5133668;27;20175;-55
2023/08/27 04:16:15;;;;;;;1.80;0.83;;;23.40;51.00;;;;;;5133167;27;20499;-52
2023/08/27 04:18:41;;;;;;;1.33;0.67;;;23.40;50.90;;;;;;5133186;27;20949;-57
2023/08/27 04:21:07;;;;;;;2.30;1.30;;;23.40;51.00;;;;;;5133353;27;20170;-55
2023/08/27 04:23:35;;;;;;;2.33;1.50;;;23.40;51.00;;;;;;5133559;27;20178;-51
2023/08/27 04:26:03;;;;;;;2.17;1.47;;;23.40;51.00;;;;;;5133059;27;20224;-56
2023/08/27 04:28:31;;;;;;;2.23;1.43;;;23.50;51.20;;;;;;5133412;27;20408;-52
2023/08/27 04:30:57;;;;;;;1.57;1.00;;;23.40;51.10;;;;;;5131836;27;20858;-56
2023/08/27 04:33:23;;;;;;;4.03;1.17;;;23.50;51.00;;;;;;5133129;27;20461;-53
2023/08/27 04:35:52;;;;;;;1.80;1.03;;;23.40;50.90;;;;;;5132773;27;20196;-51
2023/08/27 04:38:19;;;;;;;1.20;0.70;;;23.40;51.00;;;;;;5133339;27;20489;-56
2023/08/27 04:40:50;;;;;;;1.70;1.00;;;23.40;50.90;;;;;;5133044;27;20750;-55
2023/08/27 04:43:16;;;;;;;1.57;0.90;;;23.40;50.90;;;;;;5133362;27;20420;-52
2023/08/27 04:45:42;;;;;;;1.80;1.23;;;23.40;50.90;;;;;;5132661;27;20472;-57
2023/08/27 04:48:08;;;;;;;2.10;1.43;;;23.40;51.00;;;;;;5132914;28;20625;-56
2023/08/27 04:50:35;;;;;;;1.47;1.00;;;23.40;51.00;;;;;;5133253;28;20480;-52
2023/08/27 04:53:01;;;;;;;1.73;1.07;;;23.30;51.00;;;;;;5132977;27;20407;-53
2023/08/27 04:55:26;;;;;;;4.20;1.10;;;23.30;51.10;;;;;;5132750;27;20407;-57
2023/08/27 04:57:52;;;;;;;1.43;1.00;;;23.30;51.20;;;;;;5132722;27;20794;-56
2023/08/27 05:00:22;;;;;;;1.50;0.93;;;23.30;51.30;;;;;;5132693;28;20245;-51
2023/08/27 05:02:48;;;;;;;1.60;1.20;;;23.30;51.30;;;;;;5133012;28;20167;-57
2023/08/27 05:05:15;;;;;;;1.20;0.77;;;23.30;51.30;;;;;;5132854;27;20488;-52
2023/08/27 05:07:41;;;;;;;1.53;0.90;;;23.40;51.00;;;;;;5131932;27;20817;-51
2023/08/27 05:10:07;;;;;;;1.60;0.90;;;23.40;50.80;;;;;;5132646;27;20420;-57
2023/08/27 05:12:33;;;;;;;1.50;0.80;;;23.40;50.70;;;;;;5133036;27;20407;-57
2023/08/27 05:14:59;;;;;;;1.40;0.77;;;23.40;50.70;;;;;;5132348;27;20417;-52
2023/08/27 05:17:24;;;;;;;1.10;0.40;;;23.40;50.70;;;;;;5132511;27;20305;-57
2023/08/27 05:19:50;;;;;;;1.07;0.50;;;23.40;50.50;;;;;;5136850;27;20404;-57
2023/08/27 05:22:16;;;;;;;1.90;0.73;;;23.40;50.40;;;;;;5136971;27;20263;-53
2023/08/27 05:24:42;;;;;;;1.67;0.80;;;23.40;50.40;;;;;;5136627;27;20250;-53
2023/08/27 05:27:07;;;;;;;6.50;1.10;;;23.40;50.40;;;;;;5136527;27;20636;-55
2023/08/27 05:29:33;;;;;;;1.00;0.40;;;23.40;50.40;;;;;;5136493;27;20181;-52
2023/08/27 05:31:59;;;;;;;1.57;0.60;;;23.40;50.30;;;;;;5136822;27;20198;-58
2023/08/27 05:34:25;;;;;;;1.30;0.70;;;23.40;50.40;;;;;;5136500;27;20190;-58
2023/08/27 05:36:51;;;;;;;1.53;0.60;;;23.50;50.30;;;;;;5136423;27;20564;-51
2023/08/27 05:39:16;;;;;;;1.00;0.40;;;23.50;50.50;;;;;;5136521;27;20412;-53
2023/08/27 05:41:42;;;;;;;1.20;0.60;;;23.40;50.40;;;;;;5136472;27;20171;-55
2023/08/27 05:44:08;;;;;;;1.53;0.80;;;23.40;50.50;;;;;;5136359;27;20582;-51
2023/08/27 05:46:34;;;;;;;1.50;1.00;;;23.40;50.50;;;;;;5136392;27;20194;-52
2023/08/27 05:49:00;;;;;;;1.00;0.40;;;23.40;50.60;;;;;;5136387;27;20539;-55
2023/08/27 05:51:26;;;;;;;1.17;0.60;;;23.30;50.40;;;;;;5136341;27;20171;-53
2023/08/27 05:53:52;;;;;;;2.17;0.90;;;23.30;50.60;;;;;;5136399;27;20427;-52
2023/08/27 05:56:18;;;;;;;1.00;0.40;;;23.30;51.10;;;;;;5135818;27;20266;-54
2023/08/27 05:58:43;;;;;;;1.03;0.40;;;23.30;51.00;;;;;;5136101;27;20194;-59
2023/08/27 06:01:09;;;;;;;2.03;1.27;;;23.30;51.20;;;;;;5136007;27;20255;-52
2023/08/27 06:03:35;;;;;;;1.87;0.77;;;23.40;51.10;;;;;;5135981;27;20463;-52
2023/08/27 06:06:01;;;;;;;1.00;0.40;;;23.40;51.10;;;;;;5135683;27;20476;-58
2023/08/27 06:08:27;;;;;;;1.20;0.80;;;23.40;51.10;;;;;;5136131;27;20186;-51
2023/08/27 06:10:53;;;;;;;1.10;0.40;;;23.40;51.30;;;;;;5135807;27;20410;-51
2023/08/27 06:13:19;;;;;;;1.20;0.50;;;23.40;51.30;;;;;;5135619;27;20498;-55
2023/08/27 06:15:45;;;;;;;2.00;0.67;;;23.40;51.20;;;;;;5135700;27;20175;-52
2023/08/27 06:18:10;;;;;;;1.10;0.50;;;23.30;51.10;;;;;;5135896;27;20226;-55
2023/08/27 06:20:36;;;;;;;1.20;0.60;;;23.30;51.10;;;;;;5135627;27;20202;-52
2023/08/27 06:23:06;;;;;;;1.67;1.37;;;23.40;51.20;;;;;;5135904;27;20219;-57
2023/08/27 06:25:35;;;;;;;1.27;0.80;;;23.40;51.30;;;;;;5135345;27;20214;-53
2023/08/27 06:28:03;;;;;;;1.37;0.97;;;23.40;51.30;;;;;;5135407;27;20436;-53
2023/08/27 06:30:29;;;;;;;1.43;0.67;;;23.40;51.40;;;;;;5134421;27;20461;-57
2023/08/27 06:32:55;;;;;;;1.53;0.73;;;23.40;51.60;;;;;;5135504;27;20408;-58
2023/08/27 06:35:22;;;;;;;1.50;1.10;;;23.50;51.60;;;;;;5135109;27;20500;-52
2023/08/27 06:37:47;;;;;;;1.47;0.93;;;23.50;51.50;;;;;;5135228;27;20608;-53
2023/08/27 06:40:15;;;;;;;1.20;0.60;;;23.50;51.40;;;;;;5135162;27;20435;-52
2023/08/27 06:42:41;;;;;;;1.40;0.60;;;23.50;51.60;;;;;;5135151;27;20404;-59
2023/08/27 06:45:08;;;;;;;1.20;0.67;;;23.60;51.70;;;;;;5135225;27;20546;-57
2023/08/27 06:47:34;;;;;;;1.10;0.60;;;23.60;51.80;;;;;;5135016;27;20430;-53
2023/08/27 06:49:59;;;;;;;2.10;0.60;;;23.60;51.70;;;;;;5135027;27;20435;-55
2023/08/27 06:52:25;;;;;;;1.30;0.50;;;23.60;51.70;;;;;;5135359;27;20447;-53
2023/08/27 06:54:51;;;;;;;1.20;0.60;;;23.60;51.60;;;;;;5134998;27;20288;-59
2023/08/27 06:57:17;;;;;;;1.10;0.60;;;23.60;51.70;;;;;;5134754;27;21040;-57
2023/08/27 06:59:42;;;;;;;1.27;0.70;;;23.70;51.50;;;;;;5134924;27;20166;-52
2023/08/27 07:02:08;;;;;;;1.10;0.50;;;23.70;51.30;;;;;;5134989;27;20170;-53
2023/08/27 07:04:34;;;;;;;1.47;0.77;;;23.70;51.10;;;;;;5134684;27;20172;-57
2023/08/27 07:06:59;;;;;;;1.80;1.10;;;23.70;51.10;;;;;;5134679;27;20609;-52
2023/08/27 07:09:25;;;;;;;1.40;0.70;;;23.70;51.20;;;;;;5134842;27;20179;-53
2023/08/27 07:11:51;;;;;;;2.57;0.90;;;23.70;51.20;;;;;;5134823;27;20704;-53
2023/08/27 07:14:17;;;;;;;1.10;0.60;;;23.70;51.10;;;;;;5134559;27;20174;-57
2023/08/27 07:16:43;;;;;;;1.87;1.10;;;23.60;51.00;;;;;;5134537;27;20477;-57
2023/08/27 07:19:09;;;;;;;1.20;0.70;;;23.60;50.80;;;;;;5134537;27;20679;-53
2023/08/27 07:21:35;;;;;;;1.20;0.57;;;23.70;51.10;;;;;;5134471;27;20895;-57
2023/08/27 07:24:00;;;;;;;1.40;1.17;;;23.70;51.20;;;;;;5134395;27;20163;-54
2023/08/27 07:26:26;;;;;;;1.20;0.70;;;23.70;51.20;;;;;;5134030;27;20179;-51
2023/08/27 07:28:52;;;;;;;1.50;0.73;;;23.70;51.20;;;;;;5134491;27;20636;-53
2023/08/27 07:31:17;;;;;;;1.53;0.70;;;23.70;51.30;;;;;;5134498;27;20175;-55
2023/08/27 07:33:43;;;;;;;1.40;0.83;;;23.80;51.30;;;;;;5134222;27;20194;-52
2023/08/27 07:36:09;;;;;;;2.90;0.93;;;23.80;51.20;;;;;;5133766;27;20723;-55
2023/08/27 07:38:40;;;;;;;1.40;0.90;;;23.80;50.90;;;;;;5134296;27;20455;-53
2023/08/27 07:41:06;;;;;;;1.10;0.50;;;23.70;50.80;;;;;;5134196;27;20158;-52
2023/08/27 07:43:32;;;;;;;1.10;0.40;;;23.80;51.00;;;;;;5134022;27;20396;-53
2023/08/27 07:45:58;;;;;;;1.50;0.63;;;23.80;51.20;;;;;;5133689;27;20412;-55
2023/08/27 07:48:23;;;;;;;1.17;0.60;;;23.70;50.70;;;;;;5134001;27;20171;-52
2023/08/27 07:50:50;;;;;;;1.00;0.40;;;23.60;50.80;;;;;;5133836;27;20636;-54
2023/08/27 07:53:16;;;;;;;2.30;0.83;;;23.60;50.70;;;;;;5133718;27;20644;-56
2023/08/27 07:55:41;;;;;;;1.70;0.80;;;23.60;51.00;;;;;;5133704;27;20456;-52
2023/08/27 07:58:07;;;;;;;2.33;1.23;;;23.60;50.70;;;;;;5133630;27;20187;-52
2023/08/27 08:00:34;;;;;;;1.10;0.57;;;23.60;50.70;;;;;;5133808;27;20202;-57
2023/08/27 08:03:00;;;;;;;1.63;0.83;;;23.60;50.60;;;;;;5133731;27;20408;-54
2023/08/27 08:05:25;;;;;;;1.20;0.57;;;23.60;50.70;;;;;;5133281;27;20396;-56
2023/08/27 08:07:52;;;;;;;1.63;0.90;;;23.60;50.80;;;;;;5133335;27;20664;-56
2023/08/27 08:10:18;;;;;;;2.43;0.80;;;23.70;50.80;;;;;;5133680;27;20227;-52
2023/08/27 08:12:44;;;;;;;1.37;0.50;;;23.70;50.60;;;;;;5133639;27;20419;-51
2023/08/27 08:15:10;;;;;;;1.10;0.50;;;23.70;50.80;;;;;;5133185;27;20411;-56
2023/08/27 08:17:36;;;;;;;1.20;0.63;;;23.70;50.60;;;;;;5133471;27;20833;-52
2023/08/27 08:20:02;;;;;;;1.77;0.50;;;23.70;50.90;;;;;;5133446;27;20410;-52
2023/08/27 08:22:28;;;;;;;1.10;0.60;;;23.70;51.00;;;;;;5133352;27;20663;-58
2023/08/27 08:24:55;;;;;;;1.87;0.63;;;23.80;50.90;;;;;;5133039;27;20416;-59
2023/08/27 08:27:21;;;;;;;1.40;0.90;;;23.80;50.60;;;;;;5133336;27;20431;-52
2023/08/27 08:29:47;;;;;;;1.17;0.70;;;23.90;50.50;;;;;;5133224;27;20503;-57
2023/08/27 08:32:13;;;;;;;1.63;0.90;;;24.00;50.60;;;;;;5133195;27;20436;-57
2023/08/27 08:34:39;;;;;;;2.20;0.87;;;24.00;50.60;;;;;;5132992;27;20193;-53
2023/08/27 08:37:05;;;;;;;2.03;0.60;;;24.00;50.60;;;;;;5132846;27;20198;-52
2023/08/27 08:39:31;;;;;;;1.30;0.70;;;24.10;50.60;;;;;;5133338;27;20400;-56
2023/08/27 08:42:26;;;;;;;1.17;0.53;;;24.10;50.60;;;;;;5133334;27;20259;-55
2023/08/27 08:45:05;;;;;;;1.30;0.50;;;24.20;50.50;;;;;;5132825;27;20181;-58
2023/08/27 08:47:34;;;;;;;1.20;0.63;;;24.20;51.40;;;;;;5132825;27;20416;-52
2023/08/27 08:50:09;;;;;;;1.23;0.50;;;24.20;50.40;;;;;;5133240;27;20435;-56
2023/08/27 08:52:39;;;;;;;1.40;0.80;;;24.30;50.30;;;;;;5132324;27;20415;-54
2023/08/27 08:55:11;;;;;;;1.10;0.47;;;24.20;50.30;;;;;;5132726;27;20499;-57
2023/08/27 08:58:00;;;;;;;1.50;0.87;;;24.30;50.50;;;;;;5132754;27;20530;-52
2023/08/27 09:00:27;;;;;;;1.57;0.70;;;24.30;50.70;;;;;;5133247;28;20406;-52
2023/08/27 09:02:53;;;;;;;1.87;0.77;;;24.20;51.60;;;;;;5133171;27;20416;-56
2023/08/27 09:05:20;;;;;;;1.40;0.87;;;24.20;51.00;;;;;;5132660;27;20483;-53
2023/08/27 09:07:47;;;;;;;1.37;0.93;;;24.20;51.10;;;;;;5132716;28;20420;-53
2023/08/27 09:10:14;;;;;;;1.10;0.60;;;24.20;50.70;;;;;;5132818;27;20412;-56
2023/08/27 09:12:41;;;;;;;1.47;0.90;;;24.10;50.90;;;;;;5132626;28;20894;-51
2023/08/27 09:15:10;;;;;;;1.20;0.60;;;24.10;51.00;;;;;;5132528;27;20407;-53
2023/08/27 09:17:39;;;;;;;1.30;0.60;;;24.20;51.00;;;;;;5132845;27;20500;-57
2023/08/27 09:20:07;;;;;;;2.13;1.30;;;24.20;50.80;;;;;;5132755;28;20400;-52
2023/08/27 09:22:35;;;;;;;2.60;1.40;;;24.20;51.00;;;;;;5132670;27;20411;-57
2023/08/27 09:25:04;;;;;;;1.77;1.17;;;24.30;51.40;;;;;;5132276;27;20419;-51
2023/08/27 09:27:31;;;;;;;2.10;0.70;;;24.30;51.30;;;;;;5132580;27;20419;-53
2023/08/27 09:30:00;;;;;;;1.30;0.60;;;24.40;51.00;;;;;;5132578;27;20405;-56
2023/08/27 09:32:26;;;;;;;1.30;1.03;;;24.50;51.10;;;;;;5132746;27;20789;-52
2023/08/27 09:35:01;;;;;;;1.10;0.57;;;24.50;51.50;;;;;;5132404;27;20506;-57
2023/08/27 09:37:28;;;;;;;1.23;0.60;;;24.50;51.10;;;;;;5132198;27;20987;-53
2023/08/27 09:39:55;;;;;;;1.60;0.77;;;24.50;51.10;;;;;;5132519;27;20476;-52
2023/08/27 09:42:22;;;;;;;2.60;1.33;;;24.60;51.30;;;;;;5132517;28;20400;-55
2023/08/27 09:44:51;;;;;;;1.43;0.67;;;24.60;50.70;;;;;;5132573;27;20491;-53
2023/08/27 09:47:28;;;;;;;1.37;0.70;;;24.60;51.00;;;;;;5132403;27;20466;-52
2023/08/27 09:49:54;;;;;;;2.47;1.10;;;24.70;50.80;;;;;;5132299;27;20391;-56
2023/08/27 09:52:24;;;;;;;2.07;0.87;;;24.70;50.90;;;;;;5132330;27;20404;-57
2023/08/27 09:54:51;;;;;;;3.03;0.80;;;24.80;50.80;;;;;;5132329;27;20419;-52
2023/08/27 09:57:18;;;;;;;1.37;0.80;;;24.80;50.70;;;;;;5132432;27;20977;-57
2023/08/27 09:59:45;;;;;;;1.40;0.90;;;24.90;50.80;;;;;;5132579;27;20405;-53
2023/08/27 10:02:13;;;;;;;1.10;0.63;;;25.00;51.00;;;;;;5132336;27;20982;-57
2023/08/27 10:04:49;;;;;;;1.53;0.90;;;25.00;50.60;;;;;;5132424;27;20763;-58
2023/08/27 10:07:16;;;;;;;2.67;0.83;;;25.10;50.70;;;;;;5135751;27;20939;-53
2023/08/27 10:09:42;;;;;;;1.50;0.60;;;25.20;50.60;;;;;;5136034;27;20404;-51
2023/08/27 10:12:12;;;;;;;1.70;1.10;;;25.20;50.70;;;;;;5135768;27;20411;-56
2023/08/27 10:14:42;;;;;;;1.97;1.77;;;25.30;50.70;;;;;;5135681;27;20401;-58
2023/08/27 10:17:09;;;;;;;2.33;1.50;;;25.30;50.70;;;;;;5135494;27;20452;-54
2023/08/27 10:19:35;;;;;;;3.27;1.27;;;25.40;50.90;;;;;;5135811;27;20401;-55
2023/08/27 10:22:03;;;;;;;1.57;1.03;;;25.40;50.40;;;;;;5135503;27;20411;-52
2023/08/27 10:24:30;;;;;;;1.53;1.20;;;25.40;50.80;;;;;;5135416;27;20400;-52
2023/08/27 10:27:00;;;;;;;1.60;1.03;;;25.50;50.70;;;;;;5135458;27;20424;-52
2023/08/27 10:29:28;;;;;;;2.03;1.73;;;25.60;50.80;;;;;;5135410;27;20400;-57
2023/08/27 10:31:55;;;;;;;1.60;0.90;;;25.60;50.60;;;;;;5135671;27;20413;-53
2023/08/27 10:34:23;;;;;;;2.27;0.80;;;25.60;50.60;;;;;;5135281;27;20765;-52
2023/08/27 10:36:51;;;;;;;1.63;0.87;;;25.60;50.50;;;;;;5135347;27;20447;-56
2023/08/27 10:39:26;;;;;;;3.40;1.60;;;25.60;50.50;;;;;;5135241;27;20396;-54
2023/08/27 10:41:52;;;;;;;1.60;0.90;;;25.60;50.30;;;;;;5135525;27;20400;-52
2023/08/27 10:44:21;;;;;;;2.20;1.27;;;25.60;51.10;;;;;;5134853;27;20416;-57
2023/08/27 10:47:17;;;;;;;1.53;1.20;;;25.60;50.50;;;;;;5135112;27;20975;-53
2023/08/27 10:49:47;;;;;;;2.70;1.43;;;25.70;50.40;;;;;;5135433;27;20372;-56
2023/08/27 10:52:20;;;;;;;2.07;1.47;;;25.70;50.80;;;;;;5135264;27;20404;-54
2023/08/27 10:54:47;;;;;;;1.87;0.80;;;25.80;50.90;;;;;;5133556;27;20468;-53
2023/08/27 10:57:17;;;;;;;2.10;1.20;;;25.90;50.90;;;;;;5134714;27;20547;-55
2023/08/27 10:59:43;;;;;;;1.57;1.00;;;26.00;51.30;;;;;;5134870;27;20401;-53
2023/08/27 11:02:08;;;;;;;1.80;1.13;;;26.00;50.90;;;;;;5134845;27;20429;-54
2023/08/27 11:04:36;;;;;;;2.43;1.97;;;26.10;50.70;;;;;;5134570;27;20602;-55
2023/08/27 11:07:10;;;;;;;1.60;0.83;;;26.20;50.40;;;;;;5134516;27;20431;-53
2023/08/27 11:09:52;;;;;;;1.50;0.90;;;26.20;50.60;;;;;;5133432;27;20419;-57
2023/08/27 11:12:34;;;;;;;1.87;1.17;;;26.30;50.60;;;;;;5134705;27;20430;-51
2023/08/27 11:15:25;;;;;;;2.63;1.17;;;26.40;50.30;;;;;;5134585;27;20406;-56
2023/08/27 11:17:51;;;;;;;1.30;0.70;;;26.40;50.20;;;;;;5134312;27;20447;-53
2023/08/27 11:20:26;;;;;;;2.23;1.20;;;26.40;50.30;;;;;;5134473;27;20404;-52
2023/08/27 11:23:02;;;;;;;1.43;1.00;;;26.40;50.50;;;;;;5134800;27;20211;-57
2023/08/27 11:25:30;;;;;;;1.90;1.10;;;26.40;50.30;;;;;;5134218;27;20404;-53
2023/08/27 11:27:58;;;;;;;2.70;1.27;;;26.40;50.40;;;;;;5134150;27;20948;-54
2023/08/27 11:30:27;;;;;;;2.47;1.13;;;26.40;50.50;;;;;;5134517;27;20405;-57
2023/08/27 11:32:54;;;;;;;2.20;1.10;;;26.40;50.30;;;;;;5134226;27;20437;-53
2023/08/27 11:35:26;;;;;;;3.53;1.47;;;26.50;50.30;;;;;;5133915;27;20462;-53
2023/08/27 11:38:12;;;;;;;3.07;2.10;;;26.50;50.20;;;;;;5133900;27;20452;-59
2023/08/27 11:40:38;;;;;;;3.57;1.43;;;26.50;50.50;;;;;;5133799;27;20396;-54
2023/08/27 11:43:04;;;;;;;1.40;0.80;;;26.40;50.40;;;;;;5134056;27;20445;-55
2023/08/27 11:45:30;;;;;;;1.67;0.90;;;26.40;50.50;;;;;;5134077;27;20163;-54
2023/08/27 11:48:02;;;;;;;1.50;0.83;;;26.40;50.60;;;;;;5132837;27;20617;-53
2023/08/27 11:50:28;;;;;;;2.17;1.37;;;26.50;50.60;;;;;;5134174;27;20388;-53
2023/08/27 11:52:55;;;;;;;1.67;1.07;;;26.50;51.50;;;;;;5133705;27;20408;-58
2023/08/27 11:55:23;;;;;;;1.67;0.90;;;26.60;50.70;;;;;;5133584;27;20404;-53
2023/08/27 11:57:51;;;;;;;1.73;1.00;;;26.60;51.20;;;;;;5133557;27;20451;-53
2023/08/27 12:00:17;;;;;;;2.60;1.47;;;26.60;51.30;;;;;;5133743;27;20401;-56
2023/08/27 12:02:43;;;;;;;3.07;2.00;;;26.50;50.50;;;;;;5133745;27;20917;-52
2023/08/27 12:05:10;;;;;;;1.70;1.10;;;26.60;50.40;;;;;;5133325;27;20406;-53
2023/08/27 12:07:36;;;;;;;4.87;1.40;;;26.60;50.40;;;;;;5133440;27;20959;-58
2023/08/27 12:10:10;;;;;;;2.40;0.90;;;26.60;50.40;;;;;;5133743;27;20485;-51
2023/08/27 12:12:40;;;;;;;1.80;1.40;;;26.60;50.60;;;;;;5133671;27;20897;-54
2023/08/27 12:15:06;;;;;;;1.50;1.00;;;26.70;50.40;;;;;;5133523;27;20833;-52
2023/08/27 12:17:34;;;;;;;2.30;1.23;;;26.60;50.30;;;;;;5133327;27;20447;-53
2023/08/27 12:20:01;;;;;;;1.60;0.80;;;26.70;50.40;;;;;;5133307;27;20400;-57
2023/08/27 12:22:27;;;;;;;1.67;0.97;;;26.70;50.60;;;;;;5133285;27;20799;-54
2023/08/27 12:24:54;;;;;;;3.43;0.97;;;26.70;50.90;;;;;;5133411;27;20762;-56
2023/08/27 12:27:22;;;;;;;2.17;0.80;;;26.60;50.60;;;;;;5132834;27;20432;-53
2023/08/27 12:29:53;;;;;;;1.07;0.40;;;26.40;49.90;;;;;;5133074;27;20415;-53
2023/08/27 12:32:22;;;;;;;1.10;0.50;;;26.30;50.10;;;;;;5133182;27;20924;-57
2023/08/27 12:34:52;;;;;;;1.53;0.67;;;26.20;50.50;;;;;;5133004;27;20438;-52
2023/08/27 12:37:22;;;;;;;1.20;0.50;;;26.00;50.70;;;;;;5133247;27;20444;-53
2023/08/27 12:39:48;;;;;;;1.10;0.47;;;25.90;50.70;;;;;;5133267;27;20396;-55
2023/08/27 12:42:15;;;;;;;1.20;0.50;;;25.70;51.10;;;;;;5133114;27;20804;-54
2023/08/27 12:44:41;;;;;;;1.20;0.67;;;25.50;51.50;;;;;;5132828;27;20399;-53
2023/08/27 12:47:09;;;;;;;1.10;0.60;;;25.30;51.90;;;;;;5132893;27;20424;-52